Time;durP1;ratioP1;P1;durP2;ratioP2;P2;SDS_P1;SDS_P2;PMS_P1;PMS_P2;Temp;Humidity;BMP_temperature;BMP_pressure;BME280_temperature;BME280_humidity;BME280_pressure;Samples;Min_cycle;Max_cycle;Signal;HPM_P1;HPM_P2
2022/05/20 00:01:03;;;;;;;;;;;14.00;99.90;;;;;;5095571;28;19931;-79
2022/05/20 00:03:29;;;;;;;;;;;14.10;99.90;;;;;;5094956;28;20383;-79
2022/05/20 00:05:55;;;;;;;;;;;14.00;99.90;;;;;;5098254;27;19919;-79
2022/05/20 00:08:21;;;;;;;;;;;14.10;99.90;;;;;;5135068;27;20421;-79
2022/05/20 00:10:46;;;;;;;;;;;14.00;99.90;;;;;;5135304;27;19919;-80
2022/05/20 00:13:12;;;;;;;;;;;14.00;99.90;;;;;;5135773;27;19919;-80
2022/05/20 00:15:38;;;;;;;;;;;14.00;99.90;;;;;;5153785;27;20287;-80
2022/05/20 00:18:03;;;;;;;;;;;14.00;99.90;;;;;;5141778;27;19919;-79
2022/05/20 00:20:29;;;;;;;;;;;14.00;99.90;;;;;;5150228;27;19923;-80
2022/05/20 00:22:55;;;;;;;;;;;14.00;99.90;;;;;;5097935;27;20283;-79
2022/05/20 00:28:06;;;;;;;;;;;13.90;99.90;;;;;;5114957;27;19923;-80
2022/05/20 00:30:32;;;;;;;;;;;14.00;99.90;;;;;;5116772;27;19919;-80
2022/05/20 00:32:57;;;;;;;;;;;14.00;99.90;;;;;;5135827;27;19919;-80
2022/05/20 00:35:23;;;;;;;;;;;14.00;99.90;;;;;;5135038;27;20007;-79
2022/05/20 00:37:49;;;;;;;;;;;14.00;99.90;;;;;;5133464;27;19927;-80
2022/05/20 00:40:16;;;;;;;;;;;14.00;99.90;;;;;;5135908;27;20371;-80
2022/05/20 00:42:42;;;;;;;;;;;14.50;99.90;;;;;;5137945;27;19920;-80
2022/05/20 00:45:08;;;;;;;;;;;14.00;99.90;;;;;;5114417;27;19972;-80
2022/05/20 00:47:34;;;;;;;;;;;14.00;99.90;;;;;;5114503;27;19919;-79
2022/05/20 00:50:01;;;;;;;;;;;14.00;99.90;;;;;;5115022;27;20002;-79
2022/05/20 00:52:28;;;;;;;;;;;14.00;99.90;;;;;;5096684;27;19968;-79
2022/05/20 00:54:57;;;;;;;;;;;14.00;99.90;;;;;;5114494;27;20292;-80
2022/05/20 00:57:24;;;;;;;;;;;14.00;99.90;;;;;;5111113;27;20080;-80
2022/05/20 00:59:52;;;;;;;;;;;14.00;99.90;;;;;;5118003;27;19919;-79
2022/05/20 01:02:20;;;;;;;;;;;14.00;99.90;;;;;;5126437;27;19923;-80
2022/05/20 01:04:46;;;;;;;;;;;14.00;99.90;;;;;;5114649;27;20014;-80
2022/05/20 01:07:12;;;;;;;;;;;14.10;99.90;;;;;;5096532;27;19919;-79
2022/05/20 01:09:38;;;;;;;;;;;14.00;99.90;;;;;;5097105;27;19923;-80
2022/05/20 01:12:05;;;;;;;;;;;14.00;99.90;;;;;;5113558;27;20665;-80
2022/05/20 01:14:30;;;;;;;;;;;14.00;99.90;;;;;;5113580;27;19938;-80
2022/05/20 01:16:56;;;;;;;;;;;14.00;99.90;;;;;;5119231;27;19986;-80
2022/05/20 01:19:40;;;;;;;;;;;14.00;99.90;;;;;;5134693;27;19926;-81
2022/05/20 01:22:08;;;;;;;;;;;14.00;99.90;;;;;;5134192;27;19926;-79
2022/05/20 01:24:34;;;;;;;;;;;14.10;99.90;;;;;;5134299;27;20054;-80
2022/05/20 01:26:59;;;;;;;;;;;14.10;99.90;;;;;;5133062;27;19963;-80
2022/05/20 01:29:25;;;;;;;;;;;14.00;99.90;;;;;;5133818;27;19919;-80
2022/05/20 01:31:51;;;;;;;;;;;14.00;99.90;;;;;;5112479;28;19926;-80
2022/05/20 01:34:17;;;;;;;;;;;13.90;99.90;;;;;;5113374;27;20415;-80
2022/05/20 01:36:42;;;;;;;;;;;13.90;99.90;;;;;;5120821;27;20051;-80
2022/05/20 01:39:08;;;;;;;;;;;13.80;99.90;;;;;;5134108;27;19923;-79
2022/05/20 01:41:40;;;;;;;;;;;13.80;99.90;;;;;;5133085;27;20008;-79
2022/05/20 01:44:20;;;;;;;;;;;13.80;99.90;;;;;;5134273;27;19926;-80
2022/05/20 01:46:51;;;;;;;;;;;13.80;99.90;;;;;;5152308;27;20021;-80
2022/05/20 01:49:18;;;;;;;;;;;13.80;99.90;;;;;;5112285;28;20036;-80
2022/05/20 01:52:02;;;;;;;;;;;13.70;99.90;;;;;;5114555;27;20005;-79
2022/05/20 01:54:48;;;;;;;;;;;13.70;99.90;;;;;;5110233;28;20284;-80
2022/05/20 01:57:17;;;;;;;;;;;13.70;99.90;;;;;;5096703;27;19920;-80
2022/05/20 01:59:45;;;;;;;;;;;13.70;99.90;;;;;;5133366;27;20371;-79
2022/05/20 02:02:13;;;;;;;;;;;13.60;99.90;;;;;;5112227;28;19919;-80
2022/05/20 02:04:43;;;;;;;;;;;13.70;99.90;;;;;;5093151;28;19924;-79
2022/05/20 02:07:12;;;;;;;;;;;13.60;99.90;;;;;;5110965;28;20276;-79
2022/05/20 02:09:44;;;;;;;;;;;13.60;99.90;;;;;;5132584;27;20394;-80
2022/05/20 02:12:12;;;;;;;;;;;13.60;99.90;;;;;;5133423;27;20359;-80
2022/05/20 02:14:46;;;;;;;;;;;13.60;99.90;;;;;;5151712;27;19923;-79
2022/05/20 02:17:14;;;;;;;;;;;13.60;99.90;;;;;;5152694;27;19963;-80
2022/05/20 02:19:47;;;;;;;;;;;13.60;99.90;;;;;;5123906;28;19926;-80
2022/05/20 02:22:17;;;;;;;;;;;13.60;99.90;;;;;;5129181;27;19919;-80
2022/05/20 02:24:43;;;;;;;;;;;13.60;99.90;;;;;;5133468;27;19948;-80
2022/05/20 02:27:13;;;;;;;;;;;13.60;99.90;;;;;;5140405;27;19927;-80
2022/05/20 02:29:42;;;;;;;;;;;13.70;99.90;;;;;;5112902;28;20291;-80
2022/05/20 02:32:10;;;;;;;;;;;13.70;99.90;;;;;;5113609;28;20253;-80
2022/05/20 02:34:36;;;;;;;;;;;13.60;99.90;;;;;;5113160;28;19937;-80
2022/05/20 02:37:17;;;;;;;;;;;13.70;99.90;;;;;;5113008;28;19927;-80
2022/05/20 02:39:42;;;;;;;;;;;13.70;99.90;;;;;;5104532;28;20301;-80
2022/05/20 02:42:08;;;;;;;;;;;13.70;99.90;;;;;;5088818;27;19972;-79
2022/05/20 02:44:33;;;;;;;;;;;13.70;99.90;;;;;;5136974;27;19922;-80
2022/05/20 02:46:59;;;;;;;;;;;13.70;99.90;;;;;;5137532;27;20271;-80
2022/05/20 02:49:24;;;;;;;;;;;13.60;99.90;;;;;;5135608;27;19919;-79
2022/05/20 02:51:50;;;;;;;;;;;13.60;99.90;;;;;;5136618;27;19918;-80
2022/05/20 02:54:16;;;;;;;;;;;13.60;99.90;;;;;;5117611;27;19923;-80
2022/05/20 02:56:41;;;;;;;;;;;13.60;99.90;;;;;;5095412;28;19948;-80
2022/05/20 03:04:35;;;;;;;;;;;13.50;99.90;;;;;;5137159;27;20283;-79
2022/05/20 03:07:01;;;;;;;;;;;13.50;99.90;;;;;;5121989;27;20003;-80
2022/05/20 03:09:27;;;;;;;;;;;13.50;99.90;;;;;;5096461;28;19968;-79
2022/05/20 03:11:54;;;;;;;;;;;13.50;99.90;;;;;;5099288;27;19927;-79
2022/05/20 03:14:20;;;;;;;;;;;13.50;99.90;;;;;;5136885;27;19934;-79
2022/05/20 03:16:46;;;;;;;;;;;13.50;99.90;;;;;;5124067;27;19965;-80
2022/05/20 03:19:12;;;;;;;;;;;13.40;99.90;;;;;;5096455;28;19967;-79
2022/05/20 03:21:39;;;;;;;;;;;13.30;99.90;;;;;;5094974;28;19992;-80
2022/05/20 03:24:06;;;;;;;;;;;13.30;99.90;;;;;;5096281;28;20014;-80
2022/05/20 03:26:32;;;;;;;;;;;13.20;99.90;;;;;;5094883;28;20346;-80
2022/05/20 03:28:59;;;;;;;;;;;13.10;99.90;;;;;;5129330;27;19919;-80
2022/05/20 03:31:25;;;;;;;;;;;13.10;99.90;;;;;;5129479;27;20017;-80
2022/05/20 03:33:51;;;;;;;;;;;13.10;99.90;;;;;;5095640;28;19981;-80
2022/05/20 03:36:16;;;;;;;;;;;13.00;99.90;;;;;;5104447;27;20339;-80
2022/05/20 03:38:42;;;;;;;;;;;13.00;99.90;;;;;;5118953;27;19977;-80
2022/05/20 03:41:10;;;;;;;;;;;13.00;99.90;;;;;;5136001;27;20200;-80
2022/05/20 03:43:36;;;;;;;;;;;13.00;99.90;;;;;;5121063;27;19919;-80
2022/05/20 03:46:01;;;;;;;;;;;13.00;99.90;;;;;;5116067;27;19919;-80
2022/05/20 03:48:27;;;;;;;;;;;13.00;99.90;;;;;;5116180;27;19926;-80
2022/05/20 03:50:53;;;;;;;;;;;13.00;99.90;;;;;;5133009;27;20703;-79
2022/05/20 03:53:18;;;;;;;;;;;13.00;99.90;;;;;;5111810;28;19943;-80
2022/05/20 03:55:44;;;;;;;;;;;13.00;99.90;;;;;;5119110;27;19939;-80
2022/05/20 03:58:10;;;;;;;;;;;13.10;99.90;;;;;;5122483;27;20496;-80
2022/05/20 04:03:19;;;;;;;;;;;13.00;99.90;;;;;;5115145;27;20013;-80
2022/05/20 04:05:45;;;;;;;;;;;13.10;99.90;;;;;;5135421;27;20011;-80
2022/05/20 04:08:12;;;;;;;;;;;13.10;99.90;;;;;;5118244;27;19927;-80
2022/05/20 04:10:37;;;;;;;;;;;13.10;99.90;;;;;;5093956;28;19919;-81
2022/05/20 04:13:03;;;;;;;;;;;13.10;99.90;;;;;;5094845;28;19919;-80
2022/05/20 04:15:28;;;;;;;;;;;13.20;99.90;;;;;;5120992;27;19919;-80
2022/05/20 04:17:54;;;;;;;;;;;13.20;99.90;;;;;;5133230;27;20023;-80
2022/05/20 04:20:19;;;;;;;;;;;13.20;99.90;;;;;;5116080;27;19928;-80
2022/05/20 04:22:45;;;;;;;;;;;13.20;99.90;;;;;;5114147;27;19923;-80
2022/05/20 04:25:11;;;;;;;;;;;13.30;99.90;;;;;;5142891;27;20420;-80
2022/05/20 04:27:37;;;;;;;;;;;13.30;99.90;;;;;;5153095;27;19923;-81
2022/05/20 04:30:04;;;;;;;;;;;13.30;99.90;;;;;;5135437;27;19923;-80
2022/05/20 04:32:30;;;;;;;;;;;13.30;99.90;;;;;;5134228;27;20420;-80
2022/05/20 04:34:55;;;;;;;;;;;13.30;99.90;;;;;;5118289;27;20005;-80
2022/05/20 04:37:23;;;;;;;;;;;13.30;99.90;;;;;;5120997;27;19930;-80
2022/05/20 04:39:48;;;;;;;;;;;13.30;99.90;;;;;;5093851;28;19920;-80
2022/05/20 04:47:43;;;;;;;;;;;13.40;99.90;;;;;;5094040;28;19926;-81
2022/05/20 04:50:09;;;;;;;;;;;13.40;99.90;;;;;;5094608;28;19920;-80
2022/05/20 04:52:34;;;;;;;;;;;13.40;99.90;;;;;;5121485;27;19967;-80
2022/05/20 04:55:00;;;;;;;;;;;13.40;99.90;;;;;;5131111;27;19927;-80
2022/05/20 04:57:34;;;;;;;;;;;13.40;99.90;;;;;;5113028;27;19930;-81
2022/05/20 05:00:09;;;;;;;;;;;13.50;99.90;;;;;;5114332;27;20579;-80
2022/05/20 05:02:35;;;;;;;;;;;13.50;99.90;;;;;;5133068;27;19919;-80
2022/05/20 05:05:01;;;;;;;;;;;13.50;99.90;;;;;;5153032;27;20524;-80
2022/05/20 05:07:27;;;;;;;;;;;13.50;99.90;;;;;;5119364;27;19919;-80
2022/05/20 05:09:53;;;;;;;;;;;13.50;99.90;;;;;;5113853;27;20364;-80
2022/05/20 05:12:19;;;;;;;;;;;13.50;99.90;;;;;;5112656;27;19919;-80
2022/05/20 05:14:47;;;;;;;;;;;13.50;99.90;;;;;;5125441;27;19958;-80
2022/05/20 05:17:14;;;;;;;;;;;13.50;99.90;;;;;;5144253;27;19919;-80
2022/05/20 05:19:42;;;;;;;;;;;13.50;99.90;;;;;;5114523;27;19968;-80
2022/05/20 05:22:08;;;;;;;;;;;13.50;99.90;;;;;;5113383;27;20372;-80
2022/05/20 05:24:34;;;;;;;;;;;13.50;99.90;;;;;;5113981;27;19924;-80
2022/05/20 05:27:00;;;;;;;;;;;13.40;99.90;;;;;;5112542;27;19923;-80
2022/05/20 05:29:26;;;;;;;;;;;13.40;99.90;;;;;;5113958;27;20322;-80
2022/05/20 05:31:51;;;;;;;;;;;13.40;99.90;;;;;;5113534;28;19923;-80
2022/05/20 05:34:17;;;;;;;;;;;13.40;99.90;;;;;;5135913;27;20390;-80
2022/05/20 05:36:43;;;;;;;;;;;13.50;99.90;;;;;;5103611;27;19920;-80
2022/05/20 05:39:08;;;;;;;;;;;13.50;99.90;;;;;;5133818;27;19923;-80
2022/05/20 05:41:34;;;;;;;;;;;13.50;99.90;;;;;;5133420;27;20367;-81
2022/05/20 05:44:02;;;;;;;;;;;13.50;99.90;;;;;;5152022;27;19961;-80
2022/05/20 05:46:28;;;;;;;;;;;13.50;99.90;;;;;;5134388;27;19926;-80
2022/05/20 05:48:53;;;;;;;;;;;13.50;99.90;;;;;;5138800;27;20279;-80
2022/05/20 05:51:19;;;;;;;;;;;13.50;99.90;;;;;;5113384;28;20337;-80
2022/05/20 05:53:45;;;;;;;;;;;13.50;99.90;;;;;;5096977;28;19977;-80
2022/05/20 05:56:10;;;;;;;;;;;13.50;99.90;;;;;;5130943;28;20302;-81
2022/05/20 05:58:37;;;;;;;;;;;13.50;99.90;;;;;;5113647;28;19923;-80
2022/05/20 06:01:03;;;;;;;;;;;13.50;99.90;;;;;;5113567;28;19981;-81
2022/05/20 06:03:29;;;;;;;;;;;13.50;99.90;;;;;;5121518;27;20000;-81
2022/05/20 06:05:55;;;;;;;;;;;13.60;99.90;;;;;;5152053;27;19936;-81
2022/05/20 06:08:21;;;;;;;;;;;13.60;99.90;;;;;;5121766;28;20041;-81
2022/05/20 06:10:46;;;;;;;;;;;13.70;99.90;;;;;;5092420;28;20388;-81
2022/05/20 06:13:12;;;;;;;;;;;13.80;99.90;;;;;;5092727;28;19923;-81
2022/05/20 06:15:40;;;;;;;;;;;13.70;99.90;;;;;;5097611;28;19924;-80
2022/05/20 06:18:06;;;;;;;;;;;13.80;99.90;;;;;;5096890;28;19966;-81
2022/05/20 06:20:33;;;;;;;;;;;13.80;99.90;;;;;;5136881;27;19919;-81
2022/05/20 06:23:01;;;;;;;;;;;13.90;99.90;;;;;;5136900;27;19946;-81
2022/05/20 06:25:27;;;;;;;;;;;13.90;99.90;;;;;;5138376;27;19926;-81
2022/05/20 06:27:52;;;;;;;;;;;13.90;99.90;;;;;;5146882;27;19920;-80
2022/05/20 06:30:19;;;;;;;;;;;14.00;99.90;;;;;;5126891;27;19997;-81
2022/05/20 06:32:45;;;;;;;;;;;14.10;99.90;;;;;;5137153;27;19995;-82
2022/05/20 06:40:49;;;;;;;;;;;14.20;99.90;;;;;;5126587;27;19927;-81
2022/05/20 06:43:15;;;;;;;;;;;14.30;99.90;;;;;;5137485;27;19919;-81
2022/05/20 06:45:42;;;;;;;;;;;14.40;99.90;;;;;;5137184;27;20023;-81
2022/05/20 06:48:07;;;;;;;;;;;14.50;99.90;;;;;;5137437;27;20504;-81
2022/05/20 06:50:35;;;;;;;;;;;14.50;99.90;;;;;;5156077;27;20017;-83
2022/05/20 06:53:01;;;;;;;;;;;14.60;99.90;;;;;;5136756;27;20360;-81
2022/05/20 06:55:26;;;;;;;;;;;14.70;99.90;;;;;;5156189;27;19919;-79
2022/05/20 06:57:52;;;;;;;;;;;14.80;99.90;;;;;;5135266;27;19967;-81
2022/05/20 07:00:17;;;;;;;;;;;14.90;99.90;;;;;;5136818;27;20291;-80
2022/05/20 07:02:44;;;;;;;;;;;14.90;99.90;;;;;;5119682;27;19923;-80
2022/05/20 07:05:10;;;;;;;;;;;15.00;99.90;;;;;;5137082;27;19927;-80
2022/05/20 07:07:36;;;;;;;;;;;15.10;99.90;;;;;;5140567;27;19923;-80
2022/05/20 07:10:02;;;;;;;;;;;15.20;99.90;;;;;;5116226;27;19923;-81
2022/05/20 07:12:27;;;;;;;;;;;15.30;99.90;;;;;;5115592;27;19930;-81
2022/05/20 07:14:53;;;;;;;;;;;15.40;99.90;;;;;;5115920;27;19923;-80
2022/05/20 07:17:19;;;;;;;;;;;15.50;99.90;;;;;;5099629;27;19926;-81
2022/05/20 07:19:44;;;;;;;;;;;15.50;99.90;;;;;;5117443;27;19924;-81
2022/05/20 07:22:10;;;;;;;;;;;15.60;99.90;;;;;;5114030;27;20011;-81
2022/05/20 07:24:38;;;;;;;;;;;15.70;99.90;;;;;;5114644;27;20420;-81
2022/05/20 07:27:04;;;;;;;;;;;15.80;99.90;;;;;;5131231;27;20364;-81
2022/05/20 07:29:30;;;;;;;;;;;15.90;99.90;;;;;;5113134;27;19930;-81
2022/05/20 07:31:56;;;;;;;;;;;16.00;99.90;;;;;;5113992;27;19927;-81
2022/05/20 07:34:22;;;;;;;;;;;16.10;99.90;;;;;;5130591;27;20355;-82
2022/05/20 07:36:47;;;;;;;;;;;16.20;99.90;;;;;;5112278;27;20308;-82
2022/05/20 07:39:13;;;;;;;;;;;16.30;99.90;;;;;;5114249;27;19923;-82
2022/05/20 07:41:39;;;;;;;;;;;16.40;99.90;;;;;;5116963;27;20473;-81
2022/05/20 07:44:04;;;;;;;;;;;16.50;99.90;;;;;;5113705;27;19932;-81
2022/05/20 07:46:30;;;;;;;;;;;16.60;99.90;;;;;;5112258;27;19939;-82
2022/05/20 07:48:56;;;;;;;;;;;16.70;99.90;;;;;;5112939;27;19969;-81
2022/05/20 07:51:23;;;;;;;;;;;16.70;99.90;;;;;;5131885;27;20019;-82
2022/05/20 07:53:53;;;;;;;;;;;16.80;99.90;;;;;;5117619;27;19923;-81
2022/05/20 07:56:22;;;;;;;;;;;16.90;99.90;;;;;;5132628;27;19919;-81
2022/05/20 07:58:52;;;;;;;;;;;17.00;99.90;;;;;;5110509;27;19923;-81
2022/05/20 08:01:20;;;;;;;;;;;17.10;99.90;;;;;;5132376;27;19945;-82
2022/05/20 08:06:31;;;;;;;;;;;17.10;99.90;;;;;;5112889;27;19938;-81
2022/05/20 08:08:57;;;;;;;;;;;17.00;99.90;;;;;;5132698;27;19924;-82
2022/05/20 08:11:22;;;;;;;;;;;16.90;99.90;;;;;;5114096;27;19923;-82
2022/05/20 08:13:50;;;;;;;;;;;16.90;99.90;;;;;;5132640;27;20454;-82
2022/05/20 08:16:16;;;;;;;;;;;16.90;99.90;;;;;;5115168;27;19976;-82
2022/05/20 08:18:42;;;;;;;;;;;16.90;99.90;;;;;;5098576;27;19923;-82
2022/05/20 08:21:07;;;;;;;;;;;16.90;99.90;;;;;;5114552;27;19927;-81
2022/05/20 08:23:33;;;;;;;;;;;16.90;99.90;;;;;;5117751;27;19924;-81
2022/05/20 08:25:58;;;;;;;;;;;16.90;99.90;;;;;;5082074;27;19919;-81
2022/05/20 08:28:24;;;;;;;;;;;16.90;99.90;;;;;;5104859;27;19955;-81
2022/05/20 08:30:50;;;;;;;;;;;17.00;99.90;;;;;;5135826;27;19923;-79
2022/05/20 08:33:15;;;;;;;;;;;17.00;99.90;;;;;;5118237;27;19923;-81
2022/05/20 08:35:41;;;;;;;;;;;17.10;99.90;;;;;;5135504;27;19982;-81
2022/05/20 08:38:06;;;;;;;;;;;17.10;99.90;;;;;;5117193;27;20367;-80
2022/05/20 08:40:42;;;;;;;;;;;17.10;99.90;;;;;;5135196;27;19926;-82
2022/05/20 08:43:08;;;;;;;;;;;17.30;99.90;;;;;;5134632;27;19969;-80
2022/05/20 08:45:34;;;;;;;;;;;17.40;99.90;;;;;;5120603;27;19923;-81
2022/05/20 08:48:00;;;;;;;;;;;17.50;99.90;;;;;;5135122;27;19927;-82
2022/05/20 08:50:40;;;;;;;;;;;17.70;99.90;;;;;;5135505;27;20013;-80
2022/05/20 08:53:10;;;;;;;;;;;17.80;99.90;;;;;;5114688;27;19919;-81
2022/05/20 08:55:35;;;;;;;;;;;17.80;99.90;;;;;;5114129;27;19923;-80
2022/05/20 08:58:03;;;;;;;;;;;17.80;99.90;;;;;;5113364;27;19931;-80
2022/05/20 09:00:29;;;;;;;;;;;17.70;99.90;;;;;;5115915;27;19923;-81
2022/05/20 09:02:55;;;;;;;;;;;17.60;99.90;;;;;;5117260;27;19927;-81
2022/05/20 09:05:32;;;;;;;;;;;17.60;99.90;;;;;;5113386;27;20120;-82
2022/05/20 09:08:03;;;;;;;;;;;17.60;99.90;;;;;;5125918;27;19919;-77
2022/05/20 09:10:43;;;;;;;;;;;17.60;99.90;;;;;;5110695;28;19927;-81
2022/05/20 09:16:21;;;;;;;;;;;17.70;99.90;;;;;;5134526;27;19926;-80
2022/05/20 09:19:04;;;;;;;;;;;17.80;99.90;;;;;;5153000;27;19923;-80
2022/05/20 09:21:33;;;;;;;;;;;17.90;99.90;;;;;;5112821;27;19927;-81
2022/05/20 09:24:01;;;;;;;;;;;18.00;99.90;;;;;;5114005;27;19923;-80
2022/05/20 09:26:36;;;;;;;;;;;18.10;99.90;;;;;;5112629;27;19919;-80
2022/05/20 09:29:21;;;;;;;;;;;18.20;99.90;;;;;;5113831;27;20383;-81
2022/05/20 09:31:49;;;;;;;;;;;18.30;99.90;;;;;;5113623;27;19919;-80
2022/05/20 09:34:20;;;;;;;;;;;18.40;99.90;;;;;;5113717;27;19923;-80
2022/05/20 09:36:48;;;;;;;;;;;18.50;99.90;;;;;;5119121;27;20552;-80
2022/05/20 09:39:16;;;;;;;;;;;18.70;99.90;;;;;;5111708;28;19926;-80
2022/05/20 09:41:50;;;;;;;;;;;18.80;99.90;;;;;;5092715;28;19920;-81
2022/05/20 09:44:17;;;;;;;;;;;18.90;99.90;;;;;;5092931;28;20239;-80
2022/05/20 09:47:00;;;;;;;;;;;19.00;99.90;;;;;;5093462;28;19919;-80
2022/05/20 09:49:31;;;;;;;;;;;19.10;99.90;;;;;;5128343;27;20041;-80
2022/05/20 09:51:58;;;;;;;;;;;19.00;99.90;;;;;;5132707;27;19924;-80
2022/05/20 09:54:23;;;;;;;;;;;18.90;99.90;;;;;;5150136;27;19919;-80
2022/05/20 09:57:03;;;;;;;;;;;19.00;99.90;;;;;;5119596;28;19947;-81
2022/05/20 09:59:35;;;;;;;;;;;19.10;99.90;;;;;;5092462;28;19990;-81
2022/05/20 10:02:04;;;;;;;;;;;19.30;99.90;;;;;;5111334;28;20006;-81
2022/05/20 10:04:36;;;;;;;;;;;19.40;99.90;;;;;;5093219;28;19994;-80
2022/05/20 10:07:02;;;;;;;;;;;19.50;99.90;;;;;;5110886;28;19973;-81
2022/05/20 10:09:35;;;;;;;;;;;19.60;99.90;;;;;;5076168;28;20200;-81
2022/05/20 10:12:17;;;;;;;;;;;19.70;99.90;;;;;;5092507;28;19965;-80
2022/05/20 10:14:45;;;;;;;;;;;19.80;99.90;;;;;;5151835;27;20302;-80
2022/05/20 10:17:14;;;;;;;;;;;19.90;99.90;;;;;;5128092;27;19919;-80
2022/05/20 10:19:52;;;;;;;;;;;20.00;99.90;;;;;;5134111;27;19968;-80
2022/05/20 10:22:39;;;;;;;;;;;20.10;99.90;;;;;;5151462;27;20325;-81
2022/05/20 10:25:25;;;;;;;;;;;20.10;99.90;;;;;;5134236;27;20014;-80
2022/05/20 10:27:57;;;;;;;;;;;20.20;99.90;;;;;;5123145;28;19927;-81
2022/05/20 10:33:15;;;;;;;;;;;20.30;99.90;;;;;;5094003;28;19927;-81
2022/05/20 10:35:59;;;;;;;;;;;20.40;99.90;;;;;;5109885;28;19986;-80
2022/05/20 10:38:31;;;;;;;;;;;20.50;99.90;;;;;;5109695;27;20384;-80
2022/05/20 10:41:15;;;;;;;;;;;20.60;99.90;;;;;;5116122;27;20126;-80
2022/05/20 10:49:25;;;;;;;;;;;20.70;99.90;;;;;;5092710;28;19923;-80
2022/05/20 10:51:56;;;;;;;;;;;20.80;99.90;;;;;;5107230;27;19929;-81
2022/05/20 10:54:42;;;;;;;;;;;20.70;99.90;;;;;;5112640;28;20459;-81
2022/05/20 10:57:26;;;;;;;;;;;20.80;99.90;;;;;;5090352;28;20048;-81
2022/05/20 10:59:52;;;;;;;;;;;20.90;99.90;;;;;;5109318;28;20346;-78
2022/05/20 11:02:33;;;;;;;;;;;21.10;99.90;;;;;;5134991;27;19998;-78
2022/05/20 11:04:58;;;;;;;;;;;21.20;99.90;;;;;;5137637;27;19941;-79
2022/05/20 11:07:24;;;;;;;;;;;21.30;99.90;;;;;;5136515;27;20413;-78
2022/05/20 11:09:56;;;;;;;;;;;21.40;99.90;;;;;;5118413;27;20019;-78
2022/05/20 11:12:35;;;;;;;;;;;21.40;99.90;;;;;;5112770;28;20341;-78
2022/05/20 11:15:04;;;;;;;;;;;21.50;99.90;;;;;;5097363;27;19919;-78
2022/05/20 11:17:49;;;;;;;;;;;21.50;99.90;;;;;;5112402;28;20026;-78
2022/05/20 11:20:24;;;;;;;;;;;21.50;99.90;;;;;;5114275;28;19967;-78
2022/05/20 11:23:08;;;;;;;;;;;21.50;99.90;;;;;;5115004;27;19958;-78
2022/05/20 11:25:46;;;;;;;;;;;21.60;99.90;;;;;;5114980;27;19935;-79
2022/05/20 11:28:30;;;;;;;;;;;21.80;99.90;;;;;;5149708;27;20775;-79
2022/05/20 11:30:59;;;;;;;;;;;21.80;99.90;;;;;;5155465;27;19923;-79
2022/05/20 11:33:27;;;;;;;;;;;21.90;99.90;;;;;;5124309;27;20408;-78
2022/05/20 11:36:08;;;;;;;;;;;22.10;99.90;;;;;;5098704;27;19924;-78
2022/05/20 11:38:41;;;;;;;;;;;22.20;99.90;;;;;;5144096;27;19946;-79
2022/05/20 11:41:16;;;;;;;;;;;22.30;99.90;;;;;;5126818;27;19919;-79
2022/05/20 11:43:41;;;;;;;;;;;22.40;99.90;;;;;;5136065;27;19922;-78
2022/05/20 11:46:16;;;;;;;;;;;22.50;99.90;;;;;;5136270;27;19930;-79
2022/05/20 11:48:54;;;;;;;;;;;22.60;99.90;;;;;;5136660;27;19930;-78
2022/05/20 11:51:38;;;;;;;;;;;22.70;99.90;;;;;;5135479;27;19926;-80
2022/05/20 11:54:08;;;;;;;;;;;22.80;99.90;;;;;;5136640;27;19925;-79
2022/05/20 11:57:09;;;;;;;;;;;23.00;99.90;;;;;;5131598;27;19934;-80
2022/05/20 11:59:55;;;;;;;;;;;23.20;99.90;;;;;;5040918;28;19921;-80
2022/05/20 12:02:21;;;;;;;;;;;23.40;99.90;;;;;;5127735;27;19948;-79
2022/05/20 12:04:48;;;;;;;;;;;23.40;99.90;;;;;;5136482;27;19926;-78
2022/05/20 12:07:16;;;;;;;;;;;23.40;99.90;;;;;;5135466;27;19918;-78
2022/05/20 12:09:49;;;;;;;;;;;23.50;99.90;;;;;;5135774;27;20017;-78
2022/05/20 12:12:18;;;;;;;;;;;23.60;99.90;;;;;;5120830;27;20477;-76
2022/05/20 12:15:02;;;;;;;;;;;23.60;99.90;;;;;;5129215;27;19994;-75
2022/05/20 12:17:31;;;;;;;;;;;23.50;99.90;;;;;;5135607;27;19990;-78
2022/05/20 12:25:46;;;;;;;;;;;23.60;99.90;;;;;;5114161;27;19977;-78
2022/05/20 12:28:20;;;;;;;;;;;23.80;99.90;;;;;;5094573;28;19924;-78
2022/05/20 12:31:03;;;;;;;;;;;23.90;99.90;;;;;;5094762;28;19923;-75
2022/05/20 12:33:48;;;;;;;;;;;23.90;99.90;;;;;;5094394;28;19926;-78
2022/05/20 12:36:23;;;;;;;;;;;23.80;99.90;;;;;;5094101;28;20022;-78
2022/05/20 12:38:49;;;;;;;;;;;23.50;98.30;;;;;;5094451;28;19927;-78
2022/05/20 12:41:18;;;;;;;;;;;23.40;99.90;;;;;;5093569;28;19919;-80
2022/05/20 12:43:46;;;;;;;;;;;23.20;99.90;;;;;;5093294;28;20507;-82
2022/05/20 12:46:16;;;;;;;;;;;23.10;98.70;;;;;;5094402;28;19926;-81
2022/05/20 12:48:41;;;;;;;;;;;23.10;99.90;;;;;;5094248;28;20433;-81
2022/05/20 12:51:08;;;;;;;;;;;23.00;99.20;;;;;;5118309;27;20006;-81
2022/05/20 12:53:34;;;;;;;;;;;22.80;96.40;;;;;;5099304;27;20283;-81
2022/05/20 12:56:00;;;;;;;;;;;22.70;99.90;;;;;;5113819;27;19923;-81
2022/05/20 12:58:27;;;;;;;;;;;22.50;99.90;;;;;;5096736;27;19926;-80
2022/05/20 13:00:54;;;;;;;;;;;22.30;98.20;;;;;;5114500;27;19920;-81
2022/05/20 13:03:24;;;;;;;;;;;22.20;99.90;;;;;;5132375;27;19930;-81
2022/05/20 13:05:50;;;;;;;;;;;22.10;99.90;;;;;;5113582;27;19927;-81
2022/05/20 13:08:18;;;;;;;;;;;21.90;99.90;;;;;;5114136;27;19923;-81
2022/05/20 13:10:44;;;;;;;;;;;21.80;99.90;;;;;;5100596;27;19926;-81
2022/05/20 13:13:29;;;;;;;;;;;21.70;99.40;;;;;;5117475;27;19927;-81
2022/05/20 13:15:56;;;;;;;;;;;21.60;99.90;;;;;;5077381;28;19920;-81
2022/05/20 13:18:23;;;;;;;;;;;21.40;99.90;;;;;;5094134;28;19932;-82
2022/05/20 13:20:53;;;;;;;;;;;21.30;98.10;;;;;;5093363;28;20365;-79
2022/05/20 13:23:21;;;;;;;;;;;21.10;99.00;;;;;;5110690;28;20475;-80
2022/05/20 13:25:47;;;;;;;;;;;21.00;98.70;;;;;;5113368;27;19971;-80
2022/05/20 13:28:20;;;;;;;;;;;20.90;98.50;;;;;;5143914;27;20304;-80
2022/05/20 13:30:46;;;;;;;;;;;20.80;98.70;;;;;;5117925;27;19927;-81
2022/05/20 13:33:12;;;;;;;;;;;20.70;99.60;;;;;;5112257;27;19926;-81
2022/05/20 13:35:39;;;;;;;;;;;20.70;99.60;;;;;;5109491;27;19942;-81
2022/05/20 13:38:04;;;;;;;;;;;20.60;98.90;;;;;;5110343;27;20376;-81
2022/05/20 13:40:33;;;;;;;;;;;20.50;99.90;;;;;;5109524;27;19949;-81
2022/05/20 13:43:00;;;;;;;;;;;20.50;99.90;;;;;;5108780;27;19920;-81
2022/05/20 13:51:01;;;;;;;;;;;20.20;99.90;;;;;;5110928;27;20010;-80
2022/05/20 13:53:27;;;;;;;;;;;20.10;99.90;;;;;;5109211;28;19998;-80
2022/05/20 13:55:52;;;;;;;;;;;20.00;99.90;;;;;;5081543;28;19923;-81
2022/05/20 13:58:18;;;;;;;;;;;19.90;99.90;;;;;;5109486;28;20014;-80
2022/05/20 14:00:45;;;;;;;;;;;19.80;99.90;;;;;;5128457;28;19972;-80
2022/05/20 14:03:10;;;;;;;;;;;19.70;99.90;;;;;;5113484;28;20442;-80
2022/05/20 14:05:47;;;;;;;;;;;19.60;99.90;;;;;;5109551;27;19948;-81
2022/05/20 14:08:15;;;;;;;;;;;19.50;99.90;;;;;;5108891;27;19934;-80
2022/05/20 14:10:40;;;;;;;;;;;19.40;99.90;;;;;;5110943;28;19962;-81
2022/05/20 14:13:25;;;;;;;;;;;19.30;99.90;;;;;;5110195;28;19970;-80
2022/05/20 14:15:52;;;;;;;;;;;19.30;99.90;;;;;;5085427;28;19930;-80
2022/05/20 14:18:24;;;;;;;;;;;19.20;99.90;;;;;;5110322;28;20299;-80
2022/05/20 14:20:55;;;;;;;;;;;19.10;99.90;;;;;;5109790;27;19927;-81
2022/05/20 14:23:21;;;;;;;;;;;19.10;99.90;;;;;;5109081;28;19924;-80
2022/05/20 14:26:05;;;;;;;;;;;19.00;99.90;;;;;;5109527;27;19923;-80
2022/05/20 14:28:46;;;;;;;;;;;18.90;99.90;;;;;;5106844;27;19931;-81
2022/05/20 14:31:34;;;;;;;;;;;18.90;99.90;;;;;;5110235;27;19923;-81
2022/05/20 14:34:04;;;;;;;;;;;18.80;99.90;;;;;;5110601;28;19933;-81
2022/05/20 14:36:32;;;;;;;;;;;18.70;99.90;;;;;;5114375;27;20292;-81
2022/05/20 14:38:59;;;;;;;;;;;18.70;99.90;;;;;;5131858;27;19927;-80
2022/05/20 14:41:25;;;;;;;;;;;18.60;99.90;;;;;;5135757;27;19919;-80
2022/05/20 14:43:54;;;;;;;;;;;18.60;99.90;;;;;;5099296;27;19919;-80
2022/05/20 14:49:19;;;;;;;;;;;18.40;99.90;;;;;;5117377;27;20010;-80
2022/05/20 14:51:53;;;;;;;;;;;18.30;99.90;;;;;;5134138;27;19972;-81
2022/05/20 14:54:18;;;;;;;;;;;18.00;99.90;;;;;;5116938;27;20010;-80
2022/05/20 14:56:48;;;;;;;;;;;17.90;99.90;;;;;;5115773;27;20352;-80
2022/05/20 14:59:26;;;;;;;;;;;17.80;99.90;;;;;;5116674;27;20282;-80
2022/05/20 15:01:52;;;;;;;;;;;17.70;99.90;;;;;;5115648;27;19923;-80
2022/05/20 15:04:18;;;;;;;;;;;17.60;99.90;;;;;;5116188;27;19931;-80
2022/05/20 15:06:46;;;;;;;;;;;17.50;99.90;;;;;;5112564;27;20012;-80
2022/05/20 15:09:17;;;;;;;;;;;17.50;99.90;;;;;;5113559;27;20372;-80
2022/05/20 15:11:43;;;;;;;;;;;17.50;99.90;;;;;;5111598;27;19926;-80
2022/05/20 15:14:09;;;;;;;;;;;17.40;99.90;;;;;;5111116;27;19919;-80
2022/05/20 15:16:37;;;;;;;;;;;17.40;99.90;;;;;;5130241;27;19923;-81